createdAt,value
2023-12-24T00:00:34.067Z,57.21
2023-12-24T00:04:26.075Z,57.36
2023-12-24T00:08:35.744Z,57.41
2023-12-24T00:12:45.892Z,57.50
2023-12-24T00:16:55.867Z,57.54
2023-12-24T00:21:06.051Z,57.62
2023-12-24T00:25:09.292Z,57.68
2023-12-24T00:29:19.055Z,57.66
2023-12-24T00:33:29.411Z,57.69
2023-12-24T00:37:39.260Z,57.75
2023-12-24T00:41:49.121Z,57.81
2023-12-24T00:45:58.936Z,57.88
2023-12-24T00:50:08.858Z,58.02
2023-12-24T00:54:08.835Z,58.14
2023-12-24T00:58:18.428Z,58.28
2023-12-24T01:02:27.218Z,58.41
2023-12-24T01:06:37.765Z,58.56
2023-12-24T01:10:49.334Z,58.71
2023-12-24T01:15:00.301Z,58.85
2023-12-24T01:19:10.237Z,58.95
2023-12-24T01:23:20.266Z,59.08
2023-12-24T01:26:41.398Z,59.18
2023-12-24T01:29:16.093Z,59.36
2023-12-24T01:32:18.376Z,59.50
2023-12-24T01:35:51.087Z,59.47
2023-12-24T01:38:46.317Z,59.36
2023-12-24T01:42:27.508Z,59.58
2023-12-24T01:46:37.363Z,59.59
2023-12-24T01:50:47.418Z,59.66
2023-12-24T01:54:57.303Z,59.75
2023-12-24T01:58:52.118Z,59.86
2023-12-24T02:03:01.957Z,59.97
2023-12-24T02:07:11.678Z,60.06
2023-12-24T02:11:21.436Z,60.11
2023-12-24T02:15:31.358Z,60.11
2023-12-24T02:19:41.187Z,60.13
2023-12-24T02:23:51.078Z,60.17
2023-12-24T02:28:03.446Z,60.21
2023-12-24T02:32:16.106Z,60.23
2023-12-24T02:36:05.938Z,60.26
2023-12-24T02:40:15.738Z,60.25
2023-12-24T02:44:25.640Z,60.23
2023-12-24T02:48:35.735Z,60.23
2023-12-24T02:52:45.645Z,60.27
2023-12-24T02:56:55.659Z,60.27
2023-12-24T03:01:05.671Z,60.26
2023-12-24T03:04:56.870Z,60.29
2023-12-24T03:09:06.790Z,60.31
2023-12-24T03:13:16.780Z,60.37
2023-12-24T03:16:46.725Z,60.41
2023-12-24T03:20:56.667Z,60.50
2023-12-24T03:25:06.444Z,60.55
2023-12-24T03:29:16.199Z,60.60
2023-12-24T03:33:26.265Z,60.65
2023-12-24T03:37:36.189Z,60.67
2023-12-24T03:41:45.938Z,60.64
2023-12-24T03:45:55.818Z,60.62
2023-12-24T03:50:05.741Z,60.53
2023-12-24T03:54:15.624Z,60.64
2023-12-24T03:58:25.509Z,60.86
2023-12-24T04:02:35.574Z,61.06
2023-12-24T04:06:51.147Z,61.29
2023-12-24T04:11:01.326Z,61.37
2023-12-24T04:15:11.043Z,61.46
2023-12-24T04:19:21.025Z,61.56
2023-12-24T04:23:30.935Z,61.55
2023-12-24T04:27:39.237Z,61.55
2023-12-24T04:31:48.991Z,61.58
2023-12-24T04:35:59.115Z,61.61
2023-12-24T04:40:01.275Z,61.71
2023-12-24T04:44:10.883Z,61.79
2023-12-24T04:48:20.660Z,61.95
2023-12-24T04:52:32.017Z,62.12
2023-12-24T04:56:41.797Z,63.89
2023-12-24T05:00:51.946Z,64.99
2023-12-24T05:05:01.933Z,65.08
2023-12-24T05:09:11.939Z,64.86
2023-12-24T05:13:21.674Z,64.82
2023-12-24T05:17:31.491Z,64.73
2023-12-24T05:21:35.012Z,64.55
2023-12-24T05:25:39.085Z,64.28
2023-12-24T05:29:49.108Z,64.13
2023-12-24T05:33:59.189Z,64.00
2023-12-24T05:37:59.665Z,63.96
2023-12-24T05:42:09.943Z,63.86
2023-12-24T05:46:21.126Z,63.77
2023-12-24T05:50:37.131Z,63.75
2023-12-24T05:54:46.916Z,63.58
2023-12-24T05:58:56.790Z,63.46
2023-12-24T06:03:06.479Z,63.34
2023-12-24T06:07:09.338Z,63.13
2023-12-24T06:11:09.279Z,62.91
2023-12-24T06:15:19.548Z,62.89
2023-12-24T06:19:29.532Z,62.77
2023-12-24T06:23:39.627Z,62.65
2023-12-24T06:27:49.296Z,62.63
2023-12-24T06:32:01.447Z,62.40
2023-12-24T06:36:11.281Z,62.44
2023-12-24T06:40:21.552Z,62.36
2023-12-24T06:44:31.137Z,62.30
2023-12-24T06:48:41.374Z,62.41
2023-12-24T06:52:51.557Z,62.43
2023-12-24T06:57:01.795Z,62.43
2023-12-24T07:01:10.309Z,62.46
2023-12-24T07:05:20.215Z,62.53
2023-12-24T07:09:30.473Z,62.64
2023-12-24T07:13:33.964Z,62.86
2023-12-24T07:17:26.829Z,63.01
2023-12-24T07:21:36.685Z,63.19
2023-12-24T07:25:46.558Z,63.42
2023-12-24T07:29:56.397Z,63.56
2023-12-24T07:34:06.178Z,63.64
2023-12-24T07:38:16.138Z,63.78
2023-12-24T07:42:25.955Z,63.81
2023-12-24T07:46:37.553Z,63.80
2023-12-24T07:50:48.194Z,63.79
2023-12-24T07:54:58.192Z,63.81
2023-12-24T07:59:07.902Z,63.96
2023-12-24T08:03:17.656Z,64.07
2023-12-24T08:07:28.145Z,64.30
2023-12-24T08:11:38.086Z,64.55
2023-12-24T08:15:49.364Z,64.85
2023-12-24T08:19:50.699Z,65.16
2023-12-24T08:24:32.279Z,65.53
2023-12-24T08:28:42.018Z,65.79
2023-12-24T08:32:52.051Z,65.87
2023-12-24T08:37:02.306Z,65.97
2023-12-24T08:41:12.182Z,66.02
2023-12-24T08:45:21.943Z,66.08
2023-12-24T08:49:31.773Z,66.00
2023-12-24T08:53:41.729Z,65.92
2023-12-24T08:57:51.556Z,65.93
2023-12-24T09:01:05.741Z,65.88
2023-12-24T09:04:03.631Z,65.87
2023-12-24T09:06:47.680Z,65.88
2023-12-24T09:09:42.671Z,65.85
2023-12-24T09:12:25.880Z,65.89
2023-12-24T09:15:12.893Z,65.78
2023-12-24T09:18:45.833Z,65.65
2023-12-24T09:22:53.350Z,65.81
2023-12-24T09:27:03.427Z,66.04
2023-12-24T09:31:13.443Z,66.45
2023-12-24T09:35:23.221Z,66.63
2023-12-24T09:39:32.938Z,66.76
2023-12-24T09:43:42.953Z,66.95
2023-12-24T09:47:07.004Z,67.20
2023-12-24T09:50:06.053Z,67.47
2023-12-24T09:53:12.186Z,67.63
2023-12-24T09:56:09.889Z,67.65
2023-12-24T09:58:56.216Z,67.69
2023-12-24T10:02:57.568Z,67.82
2023-12-24T10:07:10.679Z,68.26
2023-12-24T10:11:20.761Z,68.64
2023-12-24T10:15:30.113Z,68.80
2023-12-24T10:19:40.075Z,69.27
2023-12-24T10:23:49.770Z,69.46
2023-12-24T10:28:06.636Z,69.78
2023-12-24T10:32:17.111Z,70.10
2023-12-24T10:36:27.063Z,70.46
2023-12-24T10:40:45.660Z,70.68
2023-12-24T10:44:46.054Z,70.90
2023-12-24T10:48:56.148Z,70.97
2023-12-24T10:53:06.269Z,71.04
2023-12-24T10:57:16.138Z,71.04
2023-12-24T11:01:17.220Z,70.86
2023-12-24T11:05:45.878Z,71.02
2023-12-24T11:09:56.177Z,71.01
2023-12-24T11:14:11.728Z,70.86
2023-12-24T11:18:37.125Z,70.97
2023-12-24T11:22:48.955Z,70.90
2023-12-24T11:27:10.638Z,70.76
2023-12-24T11:31:26.579Z,70.54
2023-12-24T11:35:35.106Z,70.28
2023-12-24T11:39:45.345Z,70.43
2023-12-24T11:43:57.946Z,70.48
2023-12-24T11:48:07.944Z,70.35
2023-12-24T11:52:18.116Z,70.18
2023-12-24T11:56:28.411Z,69.97
2023-12-24T12:00:38.664Z,70.14
2023-12-24T12:04:48.788Z,70.34
2023-12-24T12:08:58.717Z,70.59
2023-12-24T12:13:08.813Z,70.85
2023-12-24T12:17:18.706Z,70.90
2023-12-24T12:21:28.638Z,70.89
2023-12-24T12:25:38.390Z,70.83
2023-12-24T12:29:48.605Z,70.82
2023-12-24T12:33:51.006Z,70.91
2023-12-24T12:38:00.801Z,70.86
2023-12-24T12:42:13.383Z,70.91
2023-12-24T12:46:23.269Z,70.90
2023-12-24T12:50:33.917Z,70.97
2023-12-24T12:54:46.821Z,71.01
2023-12-24T12:58:56.645Z,70.98
2023-12-24T13:03:06.724Z,70.93
2023-12-24T13:07:19.280Z,71.19
2023-12-24T13:11:32.085Z,71.03
2023-12-24T14:49:15.941Z,73.52
2023-12-24T14:53:28.800Z,73.12
2023-12-24T14:57:39.049Z,73.35
2023-12-24T15:01:49.272Z,72.92
2023-12-24T15:05:59.101Z,72.84
2023-12-24T15:10:08.838Z,73.11
2023-12-24T15:14:18.717Z,73.36
2023-12-24T15:18:28.949Z,73.34
2023-12-24T15:22:38.919Z,74.20
2023-12-24T15:26:48.631Z,74.28
2023-12-24T15:30:58.648Z,74.64
2023-12-24T15:35:09.733Z,74.61
2023-12-24T15:39:19.969Z,74.92
2023-12-24T15:43:29.875Z,75.28
2023-12-24T15:47:39.552Z,75.22
2023-12-24T15:51:49.389Z,75.90
2023-12-24T15:55:59.099Z,76.10
2023-12-24T16:00:08.838Z,75.50
2023-12-24T16:04:18.800Z,75.73
2023-12-24T16:08:29.125Z,75.90
2023-12-24T16:12:38.946Z,75.70
2023-12-24T16:16:48.950Z,76.47
2023-12-24T16:20:58.815Z,77.04
2023-12-24T16:25:08.639Z,77.15
2023-12-24T16:29:18.212Z,76.84
2023-12-24T16:33:28.045Z,77.59
2023-12-24T16:37:38.022Z,77.37
2023-12-24T16:41:48.269Z,77.39
2023-12-24T16:45:58.239Z,77.44
2023-12-24T16:50:08.140Z,78.37
2023-12-24T16:54:18.033Z,78.83
2023-12-24T16:58:27.914Z,78.02
2023-12-24T17:02:37.931Z,78.39
2023-12-24T17:06:47.875Z,79.38
2023-12-24T17:10:47.609Z,79.63
2023-12-24T17:14:57.582Z,79.46
2023-12-24T17:19:07.412Z,79.56
2023-12-24T17:23:17.347Z,79.85
2023-12-24T17:27:27.359Z,79.51
2023-12-24T17:31:37.680Z,79.08
2023-12-24T17:35:47.440Z,80.32
2023-12-24T17:39:57.086Z,79.73
2023-12-24T17:44:06.932Z,79.80
2023-12-24T17:48:20.210Z,80.22
2023-12-24T17:52:32.507Z,80.69
2023-12-24T17:56:42.374Z,80.90
2023-12-24T18:00:52.622Z,80.38
2023-12-24T18:05:02.613Z,79.89
2023-12-24T18:09:04.842Z,80.67
2023-12-24T18:13:15.137Z,80.47
2023-12-24T18:17:25.046Z,80.52
2023-12-24T18:21:35.030Z,80.76
2023-12-24T18:25:44.774Z,81.24
2023-12-24T18:29:47.779Z,81.89
2023-12-24T18:33:57.893Z,82.11
2023-12-24T18:38:08.003Z,82.02
2023-12-24T18:42:17.714Z,82.48
2023-12-24T18:46:27.570Z,83.08
2023-12-24T18:50:28.839Z,83.52
2023-12-24T18:54:38.782Z,83.68
2023-12-24T18:58:48.725Z,84.07
2023-12-24T19:02:58.915Z,84.30
2023-12-24T19:07:09.193Z,84.27
2023-12-24T19:11:19.193Z,84.46
2023-12-24T19:15:28.965Z,84.68
2023-12-24T19:19:38.865Z,84.72
2023-12-24T19:23:49.513Z,84.69
2023-12-24T19:28:00.939Z,84.32
2023-12-24T19:32:13.629Z,84.37
2023-12-24T19:36:26.371Z,84.03
2023-12-24T19:40:36.126Z,84.00
2023-12-24T19:44:44.834Z,83.89
2023-12-24T19:48:54.930Z,83.94
2023-12-24T19:53:05.409Z,84.16
2023-12-24T20:08:58.637Z,84.76
2023-12-24T20:13:08.455Z,84.55
2023-12-24T20:17:18.220Z,84.58
2023-12-24T20:21:28.113Z,84.54
2023-12-24T20:25:37.965Z,84.57
2023-12-24T20:29:47.934Z,84.63
2023-12-24T20:34:00.756Z,84.63
2023-12-24T20:38:10.962Z,84.66
2023-12-24T20:42:23.748Z,84.61
2023-12-24T20:46:33.499Z,84.51
2023-12-24T20:50:43.176Z,84.30
2023-12-24T20:54:53.197Z,84.14
2023-12-24T20:59:02.935Z,84.00
2023-12-24T21:03:12.848Z,83.87
2023-12-24T21:07:25.224Z,83.84
2023-12-24T21:11:35.611Z,83.74
2023-12-24T21:15:44.353Z,83.81
2023-12-24T21:19:54.109Z,83.93
2023-12-24T21:24:04.094Z,84.05
2023-12-24T21:28:15.387Z,84.20
2023-12-24T21:31:29.838Z,84.18
2023-12-24T21:34:15.372Z,84.18
2023-12-24T21:36:57.914Z,84.15
2023-12-24T21:40:12.170Z,84.18
2023-12-24T21:43:00.449Z,83.99
2023-12-24T21:45:37.585Z,83.99
2023-12-24T21:48:15.897Z,84.17
2023-12-24T21:50:45.505Z,84.23
2023-12-24T21:53:33.123Z,84.25
2023-12-24T21:56:08.416Z,84.38
2023-12-24T21:59:02.837Z,84.44
2023-12-24T22:01:34.538Z,84.43
2023-12-24T22:04:32.232Z,84.39
2023-12-24T22:07:26.361Z,84.34
2023-12-24T22:10:07.844Z,84.22
2023-12-24T22:12:52.414Z,84.12
2023-12-24T22:16:33.900Z,84.07
2023-12-24T22:20:43.784Z,84.25
2023-12-24T22:24:56.354Z,84.25
2023-12-24T22:29:06.219Z,84.17
2023-12-24T22:32:18.794Z,84.13
2023-12-24T22:34:58.128Z,84.01
2023-12-24T22:38:02.044Z,83.85
2023-12-24T22:40:47.285Z,83.72
2023-12-24T22:43:27.971Z,83.69
2023-12-24T22:47:21.021Z,83.72
2023-12-24T22:51:30.676Z,83.71
2023-12-24T22:55:40.634Z,83.49
2023-12-24T22:59:50.438Z,82.97
2023-12-24T23:04:00.588Z,82.73
2023-12-24T23:08:03.165Z,82.28
2023-12-24T23:11:53.930Z,81.89
2023-12-24T23:16:03.728Z,81.65
2023-12-24T23:20:18.658Z,81.48
2023-12-24T23:24:28.406Z,81.39
2023-12-24T23:28:38.264Z,81.26
2023-12-24T23:32:48.587Z,81.11
2023-12-24T23:36:58.724Z,81.06
2023-12-24T23:41:08.677Z,80.96
2023-12-24T23:45:18.659Z,80.84
2023-12-24T23:49:28.498Z,80.83
2023-12-24T23:53:39.097Z,80.76
2023-12-24T23:57:48.799Z,80.61
